Terminal Aerodrome Forecast
Issued by NWS Cleveland, OH

Home | Current Version | Previous Version | Graphics & Text | Print | Product List | Glossary On
Versions: 1 2 3 4 5 6 7 8 9 10 11 12 13
000
FTUS41 KCLE 171700
TAFERI
TAF
KERI 171729Z 1718/1818 01007KT P6SM FEW120
     FM180300 VRB03KT P6SM FEW035 SCT090
     FM181500 03008KT P6SM FEW035 SCT090=

USA.gov is the U.S. government's official web portal to all federal, state and local government web resources and services.